Time;durP1;ratioP1;P1;durP2;ratioP2;P2;SDS_P1;SDS_P2;PMS_P1;PMS_P2;Temp;Humidity;BMP_temperature;BMP_pressure;BME280_temperature;BME280_humidity;BME280_pressure;Samples;Min_cycle;Max_cycle;Signal;HPM_P1;HPM_P2
2023/08/08 00:00:51;;;;;;;2.83;2.50;;;13.20;99.90;;;;;;5007413;28;20205;-68
2023/08/08 00:03:17;;;;;;;3.10;2.73;;;13.10;99.90;;;;;;5000567;28;20263;-67
2023/08/08 00:05:42;;;;;;;3.10;2.90;;;13.20;99.90;;;;;;5010173;28;20200;-67
2023/08/08 00:08:08;;;;;;;2.70;2.50;;;13.20;99.90;;;;;;4994996;28;20225;-67
2023/08/08 00:10:33;;;;;;;2.60;2.37;;;13.30;99.90;;;;;;4997021;28;20186;-67
2023/08/08 00:12:59;;;;;;;3.03;2.83;;;13.20;99.90;;;;;;5004410;28;20186;-67
2023/08/08 00:15:25;;;;;;;2.60;2.40;;;13.20;99.90;;;;;;4995059;28;20211;-67
2023/08/08 00:17:50;;;;;;;3.33;2.37;;;13.40;99.90;;;;;;5008373;28;20574;-67
2023/08/08 00:20:16;;;;;;;2.50;2.30;;;13.00;99.90;;;;;;4994889;28;20203;-67
2023/08/08 00:22:41;;;;;;;2.17;2.07;;;13.40;99.90;;;;;;5000149;28;20655;-67
2023/08/08 00:25:08;;;;;;;3.03;2.37;;;13.40;99.90;;;;;;4993288;28;20640;-68
2023/08/08 00:27:34;;;;;;;5.90;3.00;;;13.50;99.90;;;;;;5022446;28;20641;-67
2023/08/08 00:30:00;;;;;;;2.50;2.30;;;13.50;99.90;;;;;;4992768;28;20497;-67
2023/08/08 00:32:26;;;;;;;2.37;2.17;;;13.40;99.90;;;;;;4992486;28;20683;-67
2023/08/08 00:34:51;;;;;;;2.33;2.20;;;13.30;99.90;;;;;;4993846;28;20490;-67
2023/08/08 00:37:17;;;;;;;2.57;2.37;;;13.70;99.90;;;;;;4995267;28;20219;-67
2023/08/08 00:39:45;;;;;;;2.40;2.30;;;13.60;99.90;;;;;;4994436;28;20222;-68
2023/08/08 00:42:14;;;;;;;2.70;2.50;;;13.60;99.90;;;;;;4992987;28;20591;-67
2023/08/08 00:44:40;;;;;;;5.00;2.60;;;13.80;99.90;;;;;;4990448;28;20454;-67
2023/08/08 00:47:08;;;;;;;2.73;2.53;;;13.80;99.90;;;;;;4997632;28;20942;-68
2023/08/08 00:49:34;;;;;;;2.70;2.50;;;13.80;99.90;;;;;;4995177;28;20445;-67
2023/08/08 00:52:00;;;;;;;3.00;2.00;;;13.80;99.90;;;;;;5000173;28;20447;-67
2023/08/08 00:54:26;;;;;;;2.53;2.33;;;13.80;99.90;;;;;;4990323;28;20442;-67
2023/08/08 00:56:51;;;;;;;3.10;1.93;;;13.80;99.90;;;;;;4994023;28;20211;-67
2023/08/08 00:59:19;;;;;;;2.57;2.37;;;13.80;99.90;;;;;;5004411;28;20441;-67
2023/08/08 01:01:44;;;;;;;3.30;3.00;;;14.00;99.90;;;;;;5001793;28;20179;-67
2023/08/08 01:04:10;;;;;;;3.80;3.50;;;13.90;99.90;;;;;;4997934;28;20446;-67
2023/08/08 01:06:51;;;;;;;2.50;2.30;;;14.00;99.90;;;;;;4993307;28;20235;-67
2023/08/08 01:09:35;;;;;;;3.20;2.60;;;13.90;99.90;;;;;;4988710;28;20521;-67
2023/08/08 01:12:02;;;;;;;2.67;2.27;;;13.90;99.90;;;;;;4988738;28;20931;-67
2023/08/08 01:14:30;;;;;;;2.50;2.30;;;13.90;99.90;;;;;;4992836;28;20446;-67
2023/08/08 01:16:59;;;;;;;3.50;2.80;;;13.90;99.90;;;;;;4992920;28;20469;-68
2023/08/08 01:19:28;;;;;;;2.80;2.60;;;13.90;99.90;;;;;;4994564;28;20977;-68
2023/08/08 01:21:57;;;;;;;2.23;2.13;;;13.80;99.90;;;;;;5002012;28;20796;-67
2023/08/08 01:24:25;;;;;;;3.43;2.50;;;13.70;99.90;;;;;;4999547;28;20434;-67
2023/08/08 01:26:51;;;;;;;2.30;2.10;;;13.90;99.90;;;;;;5008131;28;21023;-68
2023/08/08 01:29:17;;;;;;;2.47;2.27;;;13.90;99.90;;;;;;4992447;28;20494;-67
2023/08/08 01:31:42;;;;;;;2.70;2.07;;;13.90;99.90;;;;;;4995528;28;20518;-68
2023/08/08 01:34:08;;;;;;;3.03;2.83;;;13.70;99.90;;;;;;4999499;28;20191;-67
2023/08/08 01:36:58;;;;;;;3.27;2.70;;;14.10;99.90;;;;;;5005981;28;20215;-67
2023/08/08 01:39:27;;;;;;;2.80;2.60;;;13.90;99.90;;;;;;4998255;28;20192;-67
2023/08/08 01:41:54;;;;;;;2.43;2.27;;;14.00;99.90;;;;;;4992185;28;20508;-67
2023/08/08 01:44:21;;;;;;;2.47;2.27;;;13.90;99.90;;;;;;4993505;28;20495;-67
2023/08/08 01:46:47;;;;;;;3.00;1.90;;;13.90;99.90;;;;;;5000176;28;20438;-67
2023/08/08 01:49:12;;;;;;;2.63;2.43;;;13.90;99.90;;;;;;4997647;28;20782;-68
2023/08/08 01:51:38;;;;;;;2.90;2.53;;;13.80;99.90;;;;;;5001376;28;20229;-67
2023/08/08 01:54:04;;;;;;;2.67;2.47;;;13.90;99.90;;;;;;4991503;28;20636;-67
2023/08/08 01:56:29;;;;;;;3.10;2.80;;;13.80;99.90;;;;;;4990728;28;20211;-67
2023/08/08 01:58:55;;;;;;;2.43;2.23;;;13.90;99.90;;;;;;4991645;28;20202;-67
2023/08/08 02:01:21;;;;;;;2.50;2.30;;;13.80;99.90;;;;;;4997987;28;20187;-67
2023/08/08 02:03:46;;;;;;;5.50;2.70;;;13.90;99.90;;;;;;4999848;28;20191;-68
2023/08/08 02:06:12;;;;;;;3.80;2.40;;;13.90;99.90;;;;;;4991854;28;20213;-67
2023/08/08 02:08:37;;;;;;;2.17;1.97;;;14.00;99.90;;;;;;4991511;28;20231;-67
2023/08/08 02:11:03;;;;;;;2.70;2.23;;;14.10;99.90;;;;;;4996238;28;20611;-67
2023/08/08 02:13:28;;;;;;;2.10;2.00;;;13.80;99.90;;;;;;4990710;28;20180;-68
2023/08/08 02:15:54;;;;;;;2.40;2.17;;;13.70;99.90;;;;;;4996765;28;20674;-67
2023/08/08 02:18:19;;;;;;;2.87;2.67;;;13.80;99.90;;;;;;4993044;28;20768;-67
2023/08/08 02:20:45;;;;;;;3.60;2.27;;;13.80;99.90;;;;;;4997060;28;20206;-67
2023/08/08 02:23:10;;;;;;;3.40;2.23;;;13.70;99.90;;;;;;5004382;28;20270;-68
2023/08/08 02:25:36;;;;;;;2.80;2.60;;;13.70;99.90;;;;;;4994052;28;20280;-68
2023/08/08 02:28:01;;;;;;;3.13;2.83;;;13.60;99.90;;;;;;4992479;28;20192;-67
2023/08/08 02:30:27;;;;;;;2.70;2.50;;;13.60;99.90;;;;;;4991974;28;20187;-67
2023/08/08 02:32:52;;;;;;;2.80;2.60;;;13.50;99.90;;;;;;4998068;28;20233;-68
2023/08/08 02:35:19;;;;;;;2.90;2.60;;;13.50;99.90;;;;;;5000567;28;20302;-68
2023/08/08 02:37:44;;;;;;;2.77;2.57;;;13.50;99.90;;;;;;5003695;28;20545;-68
2023/08/08 02:40:10;;;;;;;2.43;2.17;;;13.40;99.90;;;;;;4999178;28;20465;-67
2023/08/08 02:42:36;;;;;;;2.60;2.43;;;13.40;99.90;;;;;;4999537;28;20210;-67
2023/08/08 02:45:01;;;;;;;2.57;2.37;;;13.30;99.90;;;;;;4994523;28;20469;-68
2023/08/08 02:47:27;;;;;;;2.70;2.50;;;13.40;99.90;;;;;;5001814;28;20198;-67
2023/08/08 02:49:52;;;;;;;3.00;2.37;;;13.40;99.90;;;;;;4996690;28;20191;-67
2023/08/08 02:52:18;;;;;;;2.37;2.17;;;13.30;99.90;;;;;;4991725;28;20611;-67
2023/08/08 02:54:43;;;;;;;1.80;1.70;;;13.40;99.90;;;;;;4999860;28;20246;-67
2023/08/08 02:57:11;;;;;;;2.30;2.20;;;13.40;99.90;;;;;;4999268;28;20207;-67
2023/08/08 02:59:37;;;;;;;4.23;3.83;;;13.30;99.90;;;;;;4998686;28;20270;-67
2023/08/08 03:02:03;;;;;;;3.13;2.93;;;13.40;99.90;;;;;;4990087;28;20518;-67
2023/08/08 03:04:29;;;;;;;4.53;2.70;;;13.30;99.90;;;;;;5000197;28;20893;-68
2023/08/08 03:06:55;;;;;;;2.30;2.20;;;13.40;99.90;;;;;;4998938;28;20525;-68
2023/08/08 03:09:20;;;;;;;2.90;2.20;;;13.10;99.90;;;;;;5000680;28;20206;-67
2023/08/08 03:11:46;;;;;;;2.57;2.37;;;13.40;99.90;;;;;;4996492;28;20270;-67
2023/08/08 03:14:11;;;;;;;2.77;2.57;;;12.90;99.90;;;;;;5000057;28;20178;-68
2023/08/08 03:16:37;;;;;;;3.17;2.87;;;13.10;99.90;;;;;;4993905;28;20202;-67
2023/08/08 03:19:02;;;;;;;2.57;2.33;;;13.10;99.90;;;;;;4988595;28;20175;-68
2023/08/08 03:21:28;;;;;;;2.93;2.40;;;13.00;99.90;;;;;;4999311;28;20195;-68
2023/08/08 03:23:54;;;;;;;3.20;2.90;;;12.60;99.90;;;;;;4993624;28;20187;-68
2023/08/08 03:26:19;;;;;;;2.43;2.23;;;12.90;99.90;;;;;;4996136;28;20218;-68
2023/08/08 03:28:45;;;;;;;2.20;2.03;;;12.70;99.90;;;;;;5004646;28;20186;-68
2023/08/08 03:31:10;;;;;;;2.23;2.13;;;12.90;99.90;;;;;;5000431;28;20242;-68
2023/08/08 03:33:36;;;;;;;2.37;2.17;;;12.90;99.90;;;;;;5000341;28;20490;-67
2023/08/08 03:36:02;;;;;;;3.20;2.90;;;12.90;99.90;;;;;;4993382;28;20218;-67
2023/08/08 03:38:27;;;;;;;2.43;2.23;;;12.90;99.90;;;;;;4996344;28;20713;-68
2023/08/08 03:40:53;;;;;;;3.10;2.50;;;12.90;99.90;;;;;;4994592;28;20262;-68
2023/08/08 03:43:18;;;;;;;2.60;2.40;;;13.00;99.90;;;;;;5004960;28;20206;-68
2023/08/08 03:45:44;;;;;;;3.73;2.40;;;13.10;99.90;;;;;;5003904;28;20203;-67
2023/08/08 03:48:10;;;;;;;2.50;2.30;;;13.40;99.90;;;;;;4994397;28;20183;-67
2023/08/08 03:50:35;;;;;;;4.23;3.00;;;13.30;99.90;;;;;;5003543;28;20438;-68
2023/08/08 03:53:01;;;;;;;2.60;2.40;;;13.40;99.90;;;;;;4999103;28;20246;-68
2023/08/08 03:55:27;;;;;;;4.70;2.87;;;13.80;99.90;;;;;;4990744;28;20203;-67
2023/08/08 03:57:53;;;;;;;4.57;2.70;;;13.40;99.90;;;;;;4995753;28;20226;-68
2023/08/08 04:00:18;;;;;;;4.60;2.23;;;13.50;99.90;;;;;;4994744;28;20271;-68
2023/08/08 04:02:44;;;;;;;2.37;2.17;;;13.40;99.90;;;;;;5002209;28;20485;-67
2023/08/08 04:05:09;;;;;;;2.80;2.60;;;13.40;99.90;;;;;;5005531;28;20252;-68
2023/08/08 04:07:35;;;;;;;2.90;2.70;;;13.60;99.90;;;;;;4998784;28;20765;-68
2023/08/08 04:10:01;;;;;;;2.30;2.10;;;13.30;99.90;;;;;;4993067;28;20266;-68
2023/08/08 04:12:26;;;;;;;2.40;2.20;;;13.50;99.90;;;;;;4992633;28;20238;-67
2023/08/08 04:14:52;;;;;;;4.73;2.90;;;13.50;99.90;;;;;;4994988;28;20207;-68
2023/08/08 04:17:17;;;;;;;3.27;2.97;;;13.50;99.90;;;;;;5002148;28;20215;-67
2023/08/08 04:19:43;;;;;;;2.67;2.47;;;13.50;99.90;;;;;;4991893;28;20183;-68
2023/08/08 04:22:09;;;;;;;3.50;2.77;;;13.60;99.90;;;;;;4999679;28;20210;-67
2023/08/08 04:24:34;;;;;;;2.37;2.17;;;13.60;99.90;;;;;;5002301;28;20199;-68
2023/08/08 04:27:00;;;;;;;4.13;2.30;;;14.10;99.90;;;;;;4990667;28;20189;-68
2023/08/08 04:29:25;;;;;;;2.73;2.53;;;13.60;99.90;;;;;;4992590;28;20191;-67
2023/08/08 04:31:51;;;;;;;3.33;2.57;;;13.60;99.90;;;;;;4992130;28;20187;-67
2023/08/08 04:34:17;;;;;;;2.70;2.33;;;13.50;99.90;;;;;;4994338;28;20203;-68
2023/08/08 04:36:43;;;;;;;2.20;2.00;;;13.30;99.90;;;;;;4991356;28;20503;-68
2023/08/08 04:39:08;;;;;;;3.83;2.70;;;13.40;99.90;;;;;;4992914;28;20187;-67
2023/08/08 04:41:34;;;;;;;2.27;2.13;;;13.60;99.90;;;;;;4993625;28;20183;-68
2023/08/08 04:43:59;;;;;;;3.20;2.70;;;13.40;99.90;;;;;;5002851;28;20294;-68
2023/08/08 04:46:25;;;;;;;2.63;2.43;;;13.50;99.90;;;;;;5002367;28;20679;-68
2023/08/08 04:48:50;;;;;;;2.30;1.93;;;13.60;99.90;;;;;;4987536;28;20191;-67
2023/08/08 04:51:16;;;;;;;2.67;2.47;;;13.50;99.90;;;;;;4994406;28;20202;-67
2023/08/08 04:53:41;;;;;;;9.23;2.90;;;13.50;99.90;;;;;;5005599;28;20183;-68
2023/08/08 04:56:07;;;;;;;6.23;3.60;;;13.60;99.90;;;;;;5003203;28;20714;-68
2023/08/08 04:58:33;;;;;;;2.83;2.27;;;13.70;99.90;;;;;;4996932;28;20237;-68
2023/08/08 05:00:58;;;;;;;2.50;2.30;;;13.70;99.90;;;;;;5003251;28;20199;-67
2023/08/08 05:03:24;;;;;;;3.07;2.30;;;13.80;99.90;;;;;;4998413;28;20219;-67
2023/08/08 05:05:49;;;;;;;4.87;2.10;;;13.70;99.90;;;;;;4996754;28;20239;-68
2023/08/08 05:08:15;;;;;;;3.40;3.10;;;13.90;99.90;;;;;;4994176;28;20195;-68
2023/08/08 05:10:41;;;;;;;2.30;1.77;;;14.10;99.90;;;;;;4995430;28;20188;-68
2023/08/08 05:13:06;;;;;;;4.20;2.70;;;14.00;99.90;;;;;;5001770;28;20187;-68
2023/08/08 05:15:32;;;;;;;2.33;2.07;;;14.20;99.90;;;;;;5000033;28;20298;-68
2023/08/08 05:17:59;;;;;;;2.10;2.00;;;14.40;99.90;;;;;;4992136;28;20239;-67
2023/08/08 05:20:25;;;;;;;2.57;2.37;;;14.40;99.90;;;;;;4990117;28;20194;-68
2023/08/08 05:22:50;;;;;;;2.50;2.30;;;14.50;99.90;;;;;;4993566;28;20431;-68
2023/08/08 05:25:16;;;;;;;3.00;2.30;;;14.60;99.90;;;;;;5028769;22;20541;-70
2023/08/08 05:27:41;;;;;;;2.43;2.10;;;14.60;99.90;;;;;;5023772;28;20219;-70
2023/08/08 05:30:07;;;;;;;2.50;2.00;;;14.70;99.90;;;;;;5011053;28;20183;-70
2023/08/08 05:32:33;;;;;;;2.33;2.13;;;14.80;99.90;;;;;;5012188;28;20187;-70
2023/08/08 05:35:00;;;;;;;2.57;2.13;;;14.90;99.90;;;;;;5024319;28;20989;-70
2023/08/08 05:37:26;;;;;;;2.63;2.43;;;15.00;99.90;;;;;;4994718;28;20211;-70
2023/08/08 05:39:52;;;;;;;2.63;2.37;;;15.00;99.90;;;;;;4995195;28;20447;-70
2023/08/08 05:42:17;;;;;;;2.40;2.20;;;14.90;99.90;;;;;;5002167;28;20226;-70
2023/08/08 05:44:43;;;;;;;3.53;2.47;;;15.00;99.90;;;;;;5004421;28;20954;-70
2023/08/08 05:47:09;;;;;;;3.87;2.50;;;15.10;99.90;;;;;;5004562;28;20206;-71
2023/08/08 05:49:34;;;;;;;4.20;3.13;;;15.20;99.90;;;;;;4988618;28;20330;-70
2023/08/08 05:52:00;;;;;;;2.27;2.07;;;15.30;99.90;;;;;;4987427;28;20194;-70
2023/08/08 05:54:25;;;;;;;2.13;1.93;;;15.40;99.90;;;;;;5001056;28;20178;-71
2023/08/08 05:56:51;;;;;;;2.90;2.40;;;15.50;99.90;;;;;;4997730;28;20215;-70
2023/08/08 05:59:16;;;;;;;4.10;2.70;;;15.70;99.90;;;;;;4992315;28;20182;-71
2023/08/08 06:01:42;;;;;;;2.97;2.47;;;16.00;99.90;;;;;;4999595;28;20179;-71
2023/08/08 06:04:07;;;;;;;5.73;2.83;;;16.20;99.90;;;;;;5006336;28;20537;-70
2023/08/08 06:06:33;;;;;;;2.50;2.30;;;16.30;99.90;;;;;;4991129;28;20677;-70
2023/08/08 06:08:58;;;;;;;2.63;2.37;;;16.50;99.90;;;;;;4990074;28;20599;-71
2023/08/08 06:11:24;;;;;;;3.33;1.63;;;16.60;99.90;;;;;;4990181;28;20207;-70
2023/08/08 06:13:49;;;;;;;4.60;2.00;;;16.50;99.90;;;;;;4993518;28;20181;-70
2023/08/08 06:16:15;;;;;;;2.77;2.57;;;16.60;99.90;;;;;;4991257;28;20711;-70
2023/08/08 06:18:41;;;;;;;2.13;1.93;;;16.70;99.90;;;;;;4993002;28;20649;-70
2023/08/08 06:21:07;;;;;;;3.33;2.60;;;16.90;99.90;;;;;;4990035;28;20975;-70
2023/08/08 06:23:32;;;;;;;2.53;2.07;;;17.10;99.90;;;;;;4990774;28;20214;-71
2023/08/08 06:25:58;;;;;;;3.23;2.93;;;17.20;99.90;;;;;;4990595;28;20243;-71
2023/08/08 06:28:23;;;;;;;4.20;2.10;;;17.30;99.90;;;;;;4990239;28;20238;-71
2023/08/08 06:30:49;;;;;;;2.70;2.00;;;17.30;99.90;;;;;;4990370;28;20180;-70
2023/08/08 06:33:14;;;;;;;3.80;2.00;;;17.30;99.90;;;;;;4990610;28;20281;-70
2023/08/08 06:35:40;;;;;;;2.53;2.33;;;17.20;99.90;;;;;;5002994;28;20230;-70
2023/08/08 06:38:05;;;;;;;2.93;2.63;;;17.30;99.90;;;;;;4996241;28;20195;-69
2023/08/08 06:40:31;;;;;;;2.60;2.50;;;17.30;99.90;;;;;;5000560;28;20652;-70
2023/08/08 06:42:57;;;;;;;4.50;2.83;;;17.40;99.90;;;;;;4990505;28;20547;-69
2023/08/08 06:45:22;;;;;;;4.07;2.13;;;17.50;99.90;;;;;;4995102;28;20461;-69
2023/08/08 06:47:48;;;;;;;2.50;2.30;;;17.60;99.90;;;;;;5004209;28;20175;-69
2023/08/08 06:50:14;;;;;;;2.60;2.33;;;17.60;99.90;;;;;;5002817;28;20228;-70
2023/08/08 06:52:40;;;;;;;2.47;2.27;;;17.60;99.90;;;;;;4996208;28;20177;-71
2023/08/08 06:55:06;;;;;;;3.97;2.77;;;17.80;99.90;;;;;;4998152;28;20439;-71
2023/08/08 06:57:33;;;;;;;4.30;2.70;;;18.00;99.90;;;;;;5001526;28;20601;-70
2023/08/08 06:59:58;;;;;;;4.13;2.80;;;18.20;99.90;;;;;;4981928;28;20450;-69
2023/08/08 07:02:24;;;;;;;3.17;2.27;;;18.40;99.90;;;;;;4989650;28;20561;-70
2023/08/08 07:04:50;;;;;;;2.80;2.60;;;18.60;99.90;;;;;;4997544;28;20230;-69
2023/08/08 07:07:16;;;;;;;3.90;3.60;;;18.80;99.90;;;;;;4991273;28;20179;-68
2023/08/08 07:09:42;;;;;;;4.23;3.13;;;18.90;99.90;;;;;;4992422;28;20187;-68
2023/08/08 07:12:07;;;;;;;3.73;2.57;;;18.90;99.90;;;;;;4990642;28;21152;-68
2023/08/08 07:14:33;;;;;;;2.90;2.70;;;18.90;99.90;;;;;;4990874;28;20196;-69
2023/08/08 07:16:58;;;;;;;5.63;2.27;;;19.20;99.90;;;;;;4997771;28;20214;-68
2023/08/08 07:19:25;;;;;;;2.30;2.10;;;19.20;99.90;;;;;;4987526;28;20241;-69
2023/08/08 07:21:50;;;;;;;2.40;2.20;;;19.20;99.90;;;;;;4986227;28;20202;-68
2023/08/08 07:24:16;;;;;;;2.60;2.40;;;19.30;99.90;;;;;;4990211;28;20430;-68
2023/08/08 07:26:42;;;;;;;6.37;2.70;;;19.50;99.90;;;;;;4987497;28;22286;-68
2023/08/08 07:29:08;;;;;;;4.17;2.80;;;19.60;99.90;;;;;;4990115;28;20482;-68
2023/08/08 07:31:33;;;;;;;6.70;2.10;;;19.80;99.90;;;;;;4985661;28;20274;-68
2023/08/08 07:33:59;;;;;;;3.73;2.17;;;19.70;99.90;;;;;;4986912;28;20691;-68
2023/08/08 07:36:25;;;;;;;2.60;2.40;;;20.00;99.90;;;;;;4981636;28;20540;-68
2023/08/08 07:38:50;;;;;;;2.77;2.50;;;20.10;99.90;;;;;;4986994;28;20186;-68
2023/08/08 07:41:17;;;;;;;2.53;2.00;;;20.40;99.90;;;;;;4988051;28;20191;-68
2023/08/08 07:43:43;;;;;;;3.10;2.70;;;20.50;99.90;;;;;;4992752;28;20172;-68
2023/08/08 07:46:09;;;;;;;5.83;2.53;;;20.80;99.90;;;;;;4991693;28;20511;-68
2023/08/08 07:48:35;;;;;;;6.07;2.60;;;20.80;99.90;;;;;;4993693;28;20183;-68
2023/08/08 07:51:00;;;;;;;3.20;2.37;;;21.10;99.90;;;;;;4992697;28;20665;-67
2023/08/08 07:53:26;;;;;;;2.20;2.00;;;21.20;99.90;;;;;;4985583;28;20188;-67
2023/08/08 07:55:51;;;;;;;2.30;2.10;;;21.10;99.90;;;;;;4992961;28;20282;-68
2023/08/08 07:58:17;;;;;;;4.27;2.20;;;20.90;99.90;;;;;;4990547;28;20263;-68
2023/08/08 08:00:42;;;;;;;3.53;2.30;;;21.00;99.90;;;;;;4998777;28;20184;-67
2023/08/08 08:03:08;;;;;;;1.77;1.67;;;21.60;99.90;;;;;;5000754;28;20198;-68
2023/08/08 08:05:34;;;;;;;2.67;2.10;;;22.00;99.90;;;;;;4995115;28;20200;-68
2023/08/08 08:08:00;;;;;;;2.43;2.03;;;21.90;99.90;;;;;;4991524;28;20175;-68
2023/08/08 08:10:25;;;;;;;2.03;1.83;;;22.20;99.90;;;;;;4989861;28;20811;-67
2023/08/08 08:12:57;;;;;;;3.80;1.90;;;22.10;99.90;;;;;;4991308;28;20191;-68
2023/08/08 08:15:23;;;;;;;2.00;1.90;;;21.80;99.90;;;;;;4994595;28;20214;-68
2023/08/08 08:17:48;;;;;;;2.20;2.00;;;21.60;99.90;;;;;;4989655;28;20470;-69
2023/08/08 08:20:14;;;;;;;2.53;2.33;;;21.80;99.90;;;;;;4990121;28;20278;-69
2023/08/08 08:22:40;;;;;;;2.60;2.40;;;21.60;99.90;;;;;;4991213;28;20650;-69
2023/08/08 08:25:08;;;;;;;3.63;2.23;;;21.50;99.90;;;;;;4992540;28;20240;-69
2023/08/08 08:27:34;;;;;;;2.67;2.20;;;21.30;99.90;;;;;;4998772;28;20189;-69
2023/08/08 08:30:00;;;;;;;2.63;2.43;;;21.30;99.90;;;;;;4994005;28;20430;-69
2023/08/08 08:32:25;;;;;;;2.37;2.17;;;21.40;99.90;;;;;;4992016;28;20810;-69
2023/08/08 08:34:51;;;;;;;2.40;1.80;;;21.50;99.90;;;;;;4990565;28;20186;-69
2023/08/08 08:37:16;;;;;;;2.17;1.97;;;21.80;99.90;;;;;;4999125;28;20583;-68
2023/08/08 08:39:42;;;;;;;2.97;2.30;;;22.10;99.90;;;;;;4993503;28;20180;-68
2023/08/08 08:42:12;;;;;;;2.43;2.23;;;22.20;99.90;;;;;;4993774;28;20180;-67
2023/08/08 08:44:39;;;;;;;2.13;1.70;;;22.00;99.90;;;;;;4991871;28;20181;-69
2023/08/08 08:47:10;;;;;;;2.27;2.17;;;21.60;99.90;;;;;;4999658;28;20499;-68
2023/08/08 08:49:38;;;;;;;2.50;2.00;;;21.60;99.90;;;;;;4993414;28;20446;-68
2023/08/08 08:52:05;;;;;;;2.27;2.07;;;21.80;99.90;;;;;;4991845;28;20482;-68
2023/08/08 08:54:32;;;;;;;2.13;2.00;;;21.90;99.90;;;;;;4995105;28;20439;-68
2023/08/08 08:56:58;;;;;;;2.27;1.93;;;22.00;99.90;;;;;;4996857;28;20480;-67
2023/08/08 08:59:24;;;;;;;5.57;2.40;;;22.60;99.90;;;;;;4991962;28;20434;-68
2023/08/08 09:01:51;;;;;;;2.20;2.00;;;22.90;98.70;;;;;;4978148;28;20521;-67
2023/08/08 09:04:19;;;;;;;2.33;2.07;;;23.20;98.00;;;;;;4982895;28;20441;-67
2023/08/08 09:06:46;;;;;;;2.03;1.83;;;22.90;98.30;;;;;;4988901;28;20472;-67
2023/08/08 09:09:13;;;;;;;3.63;2.10;;;22.60;99.00;;;;;;4988972;28;20873;-67
2023/08/08 09:11:39;;;;;;;2.40;2.20;;;22.40;98.10;;;;;;4991402;28;20447;-67
2023/08/08 09:14:18;;;;;;;2.10;1.90;;;22.20;98.50;;;;;;4991730;28;20443;-67
2023/08/08 09:16:45;;;;;;;2.80;2.60;;;22.30;99.10;;;;;;4988051;28;20500;-67
2023/08/08 09:19:11;;;;;;;1.63;1.53;;;22.40;97.60;;;;;;4999226;28;20966;-67
2023/08/08 09:21:37;;;;;;;2.70;1.93;;;22.20;97.50;;;;;;4999156;28;20477;-67
2023/08/08 09:24:03;;;;;;;2.80;2.30;;;22.00;97.70;;;;;;4990951;28;20467;-67
2023/08/08 09:26:28;;;;;;;2.83;2.03;;;22.10;97.50;;;;;;4996262;28;20302;-67
2023/08/08 09:28:54;;;;;;;5.10;2.00;;;22.60;96.90;;;;;;4995651;28;20175;-67
2023/08/08 09:31:19;;;;;;;3.17;1.77;;;22.70;95.70;;;;;;4986499;28;20210;-69
2023/08/08 09:33:48;;;;;;;2.10;1.90;;;22.70;94.70;;;;;;4992390;28;20183;-67
2023/08/08 09:36:15;;;;;;;1.70;1.60;;;22.90;94.60;;;;;;4993428;28;20607;-68
2023/08/08 09:38:43;;;;;;;2.90;1.93;;;23.10;94.20;;;;;;4984293;28;20439;-68
2023/08/08 09:41:09;;;;;;;2.20;2.00;;;24.10;91.10;;;;;;4990699;28;20477;-67
2023/08/08 09:43:35;;;;;;;2.50;2.30;;;24.40;90.40;;;;;;4994545;28;20465;-67
2023/08/08 09:46:01;;;;;;;2.10;1.93;;;24.20;89.00;;;;;;4991458;28;20210;-67
2023/08/08 09:48:32;;;;;;;2.27;2.13;;;23.80;89.20;;;;;;4999162;28;20258;-67
2023/08/08 09:50:59;;;;;;;3.00;2.27;;;23.60;89.60;;;;;;4990783;28;20438;-69
2023/08/08 09:53:26;;;;;;;2.90;1.90;;;24.00;88.90;;;;;;4987788;28;20430;-68
2023/08/08 09:55:56;;;;;;;2.50;1.80;;;23.90;87.80;;;;;;4990949;28;20549;-67
2023/08/08 09:58:23;;;;;;;3.13;2.40;;;24.30;86.60;;;;;;4989604;28;20477;-67
2023/08/08 10:00:51;;;;;;;1.80;1.70;;;24.00;84.70;;;;;;4991482;28;20497;-66
2023/08/08 10:03:18;;;;;;;2.80;2.20;;;23.60;85.50;;;;;;4989447;28;20446;-67
2023/08/08 10:05:44;;;;;;;2.13;2.00;;;23.20;89.70;;;;;;4994885;28;20489;-68
2023/08/08 10:08:11;;;;;;;2.60;2.10;;;23.20;89.10;;;;;;4990073;28;20991;-67
2023/08/08 10:10:37;;;;;;;2.00;1.87;;;22.70;89.00;;;;;;4988216;28;20479;-68
2023/08/08 10:13:03;;;;;;;2.23;2.03;;;23.20;89.80;;;;;;4990065;28;20493;-67
2023/08/08 10:15:29;;;;;;;3.27;2.17;;;24.00;86.80;;;;;;4990988;28;20464;-68
2023/08/08 10:17:58;;;;;;;3.23;1.90;;;24.00;83.70;;;;;;4990798;28;20563;-72
2023/08/08 10:20:26;;;;;;;2.87;2.20;;;23.70;85.60;;;;;;4993050;28;20266;-69
2023/08/08 10:22:54;;;;;;;2.93;2.73;;;23.60;87.20;;;;;;4990029;28;20451;-70
2023/08/08 10:25:24;;;;;;;2.33;1.90;;;23.30;88.80;;;;;;4988120;28;21326;-71
2023/08/08 10:28:01;;;;;;;6.83;2.90;;;23.60;86.90;;;;;;4989224;28;20456;-72
2023/08/08 10:30:26;;;;;;;7.83;7.13;;;23.80;87.40;;;;;;4988906;28;20438;-74
2023/08/08 10:32:52;;;;;;;79.27;60.93;;;23.60;83.30;;;;;;4991249;28;20859;-71
2023/08/08 10:35:17;;;;;;;3.93;3.63;;;23.60;87.30;;;;;;4994218;28;20619;-72
2023/08/08 10:37:53;;;;;;;5.97;3.60;;;24.10;83.60;;;;;;4989159;28;20203;-75
2023/08/08 10:40:19;;;;;;;3.00;2.37;;;24.80;80.40;;;;;;4987408;28;20183;-74
2023/08/08 10:42:46;;;;;;;3.20;2.53;;;24.90;79.70;;;;;;4990157;28;20477;-71
2023/08/08 10:45:15;;;;;;;2.50;2.30;;;26.50;71.70;;;;;;4992394;28;20903;-77
2023/08/08 10:47:42;;;;;;;3.13;2.83;;;26.50;67.60;;;;;;4993273;28;20442;-77
2023/08/08 10:50:13;;;;;;;2.80;2.30;;;26.60;67.00;;;;;;4982778;28;20478;-76
2023/08/08 10:52:54;;;;;;;3.73;3.07;;;27.00;62.70;;;;;;5002908;28;20584;-75
2023/08/08 10:55:25;;;;;;;2.43;2.23;;;27.20;60.00;;;;;;4997144;28;20485;-76
2023/08/08 10:58:15;;;;;;;2.63;1.90;;;27.00;59.10;;;;;;4982146;28;20458;-76
2023/08/08 11:00:41;;;;;;;2.27;2.07;;;26.00;59.50;;;;;;4988415;28;20439;-68
2023/08/08 11:03:08;;;;;;;1.87;1.77;;;25.60;61.20;;;;;;4987129;28;20462;-68
2023/08/08 11:05:35;;;;;;;2.57;2.37;;;25.10;63.10;;;;;;4997797;28;20835;-68
2023/08/08 11:08:03;;;;;;;4.33;2.47;;;24.60;64.40;;;;;;4994888;28;20443;-68
2023/08/08 11:10:32;;;;;;;1.70;1.60;;;25.60;64.40;;;;;;4998397;28;20430;-68
2023/08/08 11:13:03;;;;;;;4.33;2.30;;;27.10;61.00;;;;;;4989921;28;20449;-68
2023/08/08 11:15:29;;;;;;;3.43;1.50;;;28.50;57.30;;;;;;5002937;28;20465;-68
2023/08/08 11:17:56;;;;;;;2.70;1.90;;;31.40;53.60;;;;;;5002534;28;20460;-69
2023/08/08 11:20:22;;;;;;;1.60;1.50;;;32.30;47.40;;;;;;4996675;28;20435;-69
2023/08/08 11:22:53;;;;;;;1.50;1.40;;;32.50;42.00;;;;;;5000398;28;20445;-69
2023/08/08 11:25:19;;;;;;;1.77;1.50;;;33.20;39.80;;;;;;4994159;28;20561;-69
2023/08/08 11:27:55;;;;;;;1.97;1.87;;;32.20;38.20;;;;;;4988952;28;20478;-68
2023/08/08 11:30:22;;;;;;;2.10;1.90;;;29.80;40.70;;;;;;5002545;28;20433;-68
2023/08/08 11:32:48;;;;;;;2.30;2.10;;;28.60;42.50;;;;;;5005733;28;20488;-68
2023/08/08 11:35:24;;;;;;;2.83;1.80;;;26.90;44.60;;;;;;5005727;28;20467;-68
2023/08/08 11:37:52;;;;;;;8.50;6.30;;;26.30;46.60;;;;;;4997611;28;20605;-68
2023/08/08 11:40:18;;;;;;;24.20;21.80;;;26.50;46.80;;;;;;4989918;28;20461;-68
2023/08/08 11:42:47;;;;;;;3.37;2.07;;;26.50;47.70;;;;;;4993917;28;20438;-68
2023/08/08 11:45:13;;;;;;;63.00;51.20;;;26.30;47.80;;;;;;4993712;28;20521;-68
2023/08/08 11:47:40;;;;;;;208.37;165.67;;;25.90;49.10;;;;;;4991190;28;20451;-68
2023/08/08 11:50:07;;;;;;;45.70;34.10;;;26.20;49.60;;;;;;4988513;28;20210;-68
2023/08/08 11:52:40;;;;;;;4.00;3.60;;;26.30;48.70;;;;;;4995979;28;20442;-68
2023/08/08 11:55:07;;;;;;;2.60;2.40;;;27.30;46.70;;;;;;5002246;28;20448;-69
2023/08/08 11:57:36;;;;;;;2.30;2.00;;;28.10;43.80;;;;;;5001321;28;20494;-68
2023/08/08 12:00:04;;;;;;;6.20;1.70;;;28.00;43.30;;;;;;4990239;28;20438;-69
2023/08/08 12:02:32;;;;;;;8.00;7.07;;;28.40;44.10;;;;;;4991894;28;20874;-68
2023/08/08 12:05:04;;;;;;;3.03;2.73;;;27.90;44.90;;;;;;4993192;28;20518;-68
2023/08/08 12:07:33;;;;;;;3.07;1.60;;;29.20;43.80;;;;;;5013221;28;20171;-69
2023/08/08 12:09:59;;;;;;;4.93;4.43;;;30.30;43.00;;;;;;5003616;28;20548;-69
2023/08/08 12:12:26;;;;;;;2.10;1.90;;;29.80;42.40;;;;;;4994728;28;20423;-69
2023/08/08 12:14:53;;;;;;;2.20;1.97;;;28.40;43.90;;;;;;4993110;28;20542;-66
2023/08/08 12:17:21;;;;;;;1.73;1.63;;;28.20;45.00;;;;;;4988901;28;20462;-69
2023/08/08 12:19:48;;;;;;;2.13;1.50;;;29.20;44.30;;;;;;4990159;28;20434;-68
2023/08/08 12:22:14;;;;;;;2.10;1.40;;;30.00;42.90;;;;;;4987718;28;20501;-70
2023/08/08 12:24:40;;;;;;;1.90;1.80;;;30.50;41.80;;;;;;4992812;28;20521;-70
2023/08/08 12:27:05;;;;;;;2.10;2.00;;;29.90;42.30;;;;;;4991251;28;20928;-74
2023/08/08 12:29:31;;;;;;;1.73;1.60;;;28.70;43.00;;;;;;4991185;28;20568;-74
2023/08/08 12:31:56;;;;;;;4.80;2.83;;;26.90;45.50;;;;;;4987025;28;20203;-74
2023/08/08 12:34:22;;;;;;;2.63;2.00;;;26.50;47.00;;;;;;4987745;28;20594;-74
2023/08/08 12:36:47;;;;;;;2.10;1.87;;;27.00;47.30;;;;;;4986654;28;20254;-74
2023/08/08 12:39:13;;;;;;;1.67;1.57;;;28.40;46.30;;;;;;4987095;28;20176;-74
2023/08/08 12:41:39;;;;;;;2.20;2.10;;;29.90;44.80;;;;;;4983049;28;20823;-75